createdAt,value
2022-09-23T00:07:06.274Z,97893.63
2022-09-23T00:17:07.926Z,97898.34
2022-09-23T00:27:09.831Z,97890.34
2022-09-23T00:37:11.735Z,97887.75
2022-09-23T00:47:36.262Z,97884.41
2022-09-23T00:57:40.115Z,97868.44
2022-09-23T01:07:41.525Z,97865.94
2022-09-23T01:18:03.279Z,97861.63
2022-09-23T01:28:38.801Z,97851.94
2022-09-23T01:39:11.313Z,97858.34
2022-09-23T01:49:35.192Z,97844.44
2022-09-23T01:59:47.108Z,97836.88
2022-09-23T02:10:03.434Z,97839.88
2022-09-23T02:20:07.196Z,97835.09
2022-09-23T02:30:18.020Z,97835.41
2022-09-23T02:40:38.027Z,97826.59
2022-09-23T02:50:40.091Z,97820.66
2022-09-23T03:01:21.738Z,97818.25
2022-09-23T03:11:24.653Z,97819.75
2022-09-23T03:21:48.840Z,97813.47
2022-09-23T03:31:50.484Z,97804.09
2022-09-23T03:41:55.187Z,97798.63
2022-09-23T03:51:56.746Z,97797.38
2022-09-23T04:01:59.551Z,97801.94
2022-09-23T04:12:01.363Z,97798.53
2022-09-23T04:22:03.218Z,97804.22
2022-09-23T04:32:04.788Z,97790.16
2022-09-23T04:42:06.625Z,97802.72
2022-09-23T04:52:08.052Z,97801.69
2022-09-23T05:02:10.831Z,97800.22
2022-09-23T05:12:12.287Z,97792.69
2022-09-23T05:22:13.701Z,97799.53
2022-09-23T05:32:15.398Z,97792.09
2022-09-23T05:42:18.204Z,97804.44
2022-09-23T05:52:19.617Z,97797.97
2022-09-23T06:02:21.353Z,97808.22
2022-09-23T06:12:23.196Z,97808.38
2022-09-23T06:22:25.117Z,97809.03
2022-09-23T06:32:26.774Z,97798.13
2022-09-23T06:42:28.185Z,97796.53
2022-09-23T06:52:30.067Z,97803.31
2022-09-23T07:02:31.591Z,97797.00
2022-09-23T07:12:33.997Z,97795.06
2022-09-23T07:22:35.839Z,97786.22
2022-09-23T07:32:46.993Z,97767.84
2022-09-23T07:42:50.251Z,97757.50
2022-09-23T07:52:52.872Z,97758.69
2022-09-23T08:02:54.359Z,97744.38
2022-09-23T08:12:56.017Z,97734.84
2022-09-23T08:22:57.445Z,97733.63
2022-09-23T08:32:58.908Z,97722.66
2022-09-23T08:43:00.407Z,97719.44
2022-09-23T08:53:14.306Z,97713.28
2022-09-23T09:03:23.716Z,97707.16
2022-09-23T09:13:34.188Z,97705.63
2022-09-23T09:23:55.922Z,97682.47
2022-09-23T09:34:11.926Z,97673.06
2022-09-23T09:44:26.074Z,97668.31
2022-09-23T09:54:29.065Z,97648.78
2022-09-23T10:04:35.501Z,97641.59
2022-09-23T10:14:37.394Z,97640.13
2022-09-23T10:24:41.978Z,97629.00
2022-09-23T10:34:46.560Z,97614.50
2022-09-23T10:45:38.599Z,97614.88
2022-09-23T10:55:54.137Z,97600.22
2022-09-23T11:06:11.983Z,97588.13
2022-09-23T11:16:25.936Z,97592.97
2022-09-23T11:26:54.643Z,97586.81
2022-09-23T11:37:18.566Z,97573.22
2022-09-23T11:47:29.301Z,97564.41
2022-09-23T11:57:52.725Z,97550.59
2022-09-23T12:08:26.918Z,97533.25
2022-09-23T12:18:54.774Z,97530.78
2022-09-23T12:29:02.792Z,97512.16
2022-09-23T12:39:17.664Z,97510.06
2022-09-23T12:49:29.247Z,97502.19
2022-09-23T12:59:33.018Z,97497.22
2022-09-23T13:09:42.578Z,97489.25
2022-09-23T13:19:46.162Z,97471.94
2022-09-23T13:30:03.247Z,97463.81
2022-09-23T13:40:27.100Z,97453.44
2022-09-23T13:50:32.891Z,97441.31
2022-09-23T14:00:37.841Z,97444.09
2022-09-23T14:10:42.913Z,97429.97
2022-09-23T14:20:50.134Z,97423.53
2022-09-23T14:30:54.112Z,97420.47
2022-09-23T14:41:17.106Z,97404.81
2022-09-23T14:51:18.656Z,97411.34
2022-09-23T15:01:32.469Z,97391.50
2022-09-23T15:11:35.997Z,97387.59
2022-09-23T15:21:44.117Z,97383.75
2022-09-23T15:31:46.500Z,97384.13
2022-09-23T15:41:48.026Z,97391.38
2022-09-23T15:51:52.082Z,97376.16
2022-09-23T16:01:55.779Z,97375.84
2022-09-23T16:11:57.586Z,97367.50
2022-09-23T16:21:59.018Z,97365.06
2022-09-23T16:32:01.067Z,97361.84
2022-09-23T16:42:02.609Z,97367.75
2022-09-23T16:52:04.129Z,97364.09
2022-09-23T17:02:28.977Z,97371.72
2022-09-23T17:12:32.592Z,97373.97
2022-09-23T17:22:34.336Z,97380.84
2022-09-23T17:32:35.788Z,97385.28
2022-09-23T17:42:41.246Z,97376.81
2022-09-23T17:52:42.702Z,97394.56
2022-09-23T18:02:44.097Z,97392.47
2022-09-23T18:12:45.495Z,97392.19
2022-09-23T18:22:49.351Z,97395.44
2022-09-23T18:32:51.699Z,97390.19
2022-09-23T18:42:53.186Z,97384.47
2022-09-23T18:52:57.974Z,97383.28
2022-09-23T19:03:01.589Z,97387.53
2022-09-23T19:13:05.648Z,97393.19
2022-09-23T19:23:07.086Z,97391.56
2022-09-23T19:33:09.003Z,97395.56
2022-09-23T19:43:10.739Z,97403.34
2022-09-23T19:53:12.699Z,97396.56
2022-09-23T20:03:14.384Z,97379.97
2022-09-23T20:13:17.353Z,97380.94
2022-09-23T20:23:18.818Z,97384.25
2022-09-23T20:33:22.520Z,97376.13
2022-09-23T20:43:26.358Z,97359.47
2022-09-23T20:53:28.262Z,97355.03
2022-09-23T21:03:31.762Z,97356.41
2022-09-23T21:13:34.518Z,97354.81
2022-09-23T21:23:38.161Z,97354.59
2022-09-23T21:33:39.649Z,97361.63
2022-09-23T21:43:41.478Z,97357.91
2022-09-23T21:53:44.664Z,97342.09
2022-09-23T22:03:55.043Z,97331.91
2022-09-23T22:13:57.618Z,97333.41
2022-09-23T22:24:01.700Z,97339.63
2022-09-23T22:34:03.238Z,97331.19
2022-09-23T22:44:05.018Z,97325.28
2022-09-23T22:54:07.374Z,97330.38
2022-09-23T23:04:12.526Z,97326.72
2022-09-23T23:14:18.579Z,97330.66
2022-09-23T23:24:22.713Z,97331.16
2022-09-23T23:34:24.289Z,97318.47
2022-09-23T23:44:26.762Z,97330.91
2022-09-23T23:54:28.296Z,97306.88
